sensor_id;sensor_type;location;lat;lon;timestamp;temperature;humidity
3406;DHT22;10008;48.682;9.016;2023-02-28T00:00:28;-1.40;95.00
3406;DHT22;10008;48.682;9.016;2023-02-28T00:02:54;-1.40;95.20
3406;DHT22;10008;48.682;9.016;2023-02-28T00:05:22;-1.40;95.80
3406;DHT22;10008;48.682;9.016;2023-02-28T00:07:49;-1.40;96.40
3406;DHT22;10008;48.682;9.016;2023-02-28T00:10:20;-1.40;97.30
3406;DHT22;10008;48.682;9.016;2023-02-28T00:12:52;-1.40;96.50
3406;DHT22;10008;48.682;9.016;2023-02-28T00:15:19;-1.40;97.30
3406;DHT22;10008;48.682;9.016;2023-02-28T00:17:45;-1.40;97.30
3406;DHT22;10008;48.682;9.016;2023-02-28T00:20:12;-0.70;97.20
3406;DHT22;10008;48.682;9.016;2023-02-28T00:22:44;-1.40;97.30
3406;DHT22;10008;48.682;9.016;2023-02-28T00:25:11;-1.40;96.90
3406;DHT22;10008;48.682;9.016;2023-02-28T00:27:38;-1.50;96.60
3406;DHT22;10008;48.682;9.016;2023-02-28T00:30:05;-1.50;97.00
3406;DHT22;10008;48.682;9.016;2023-02-28T00:32:31;-1.50;97.50
3406;DHT22;10008;48.682;9.016;2023-02-28T00:34:57;-1.60;97.50
3406;DHT22;10008;48.682;9.016;2023-02-28T00:37:23;-0.70;97.50
3406;DHT22;10008;48.682;9.016;2023-02-28T00:39:49;-1.70;97.50
3406;DHT22;10008;48.682;9.016;2023-02-28T00:42:15;-1.70;97.60
3406;DHT22;10008;48.682;9.016;2023-02-28T00:44:41;-1.70;97.90
3406;DHT22;10008;48.682;9.016;2023-02-28T00:47:06;-1.70;98.00
3406;DHT22;10008;48.682;9.016;2023-02-28T00:49:32;-1.80;97.70
3406;DHT22;10008;48.682;9.016;2023-02-28T00:51:58;-1.40;98.40
3406;DHT22;10008;48.682;9.016;2023-02-28T00:54:25;-1.70;98.60
3406;DHT22;10008;48.682;9.016;2023-02-28T00:56:51;-1.70;98.20
3406;DHT22;10008;48.682;9.016;2023-02-28T00:59:17;-1.80;98.50
3406;DHT22;10008;48.682;9.016;2023-02-28T01:01:44;-0.20;99.20
3406;DHT22;10008;48.682;9.016;2023-02-28T01:04:11;-1.80;98.60
3406;DHT22;10008;48.682;9.016;2023-02-28T01:06:37;-1.90;98.30
3406;DHT22;10008;48.682;9.016;2023-02-28T01:09:04;-1.90;98.50
3406;DHT22;10008;48.682;9.016;2023-02-28T01:11:30;-1.90;98.40
3406;DHT22;10008;48.682;9.016;2023-02-28T01:13:57;-1.90;98.70
3406;DHT22;10008;48.682;9.016;2023-02-28T01:16:23;-1.90;99.30
3406;DHT22;10008;48.682;9.016;2023-02-28T01:18:49;-1.90;99.40
3406;DHT22;10008;48.682;9.016;2023-02-28T01:21:18;-1.90;99.10
3406;DHT22;10008;48.682;9.016;2023-02-28T01:23:45;-2.00;99.00
3406;DHT22;10008;48.682;9.016;2023-02-28T01:26:14;-2.00;99.30
3406;DHT22;10008;48.682;9.016;2023-02-28T01:28:41;-1.90;99.70
3406;DHT22;10008;48.682;9.016;2023-02-28T01:31:08;-1.90;99.80
3406;DHT22;10008;48.682;9.016;2023-02-28T01:33:34;-1.60;99.90
3406;DHT22;10008;48.682;9.016;2023-02-28T01:36:04;-1.00;99.90
3406;DHT22;10008;48.682;9.016;2023-02-28T01:38:30;-2.00;99.90
3406;DHT22;10008;48.682;9.016;2023-02-28T01:40:56;-2.00;99.90
3406;DHT22;10008;48.682;9.016;2023-02-28T01:43:27;-2.00;99.90
3406;DHT22;10008;48.682;9.016;2023-02-28T01:45:55;-2.00;99.90
3406;DHT22;10008;48.682;9.016;2023-02-28T01:48:30;-2.00;99.90
3406;DHT22;10008;48.682;9.016;2023-02-28T01:51:00;-2.00;99.90
3406;DHT22;10008;48.682;9.016;2023-02-28T01:53:32;-2.10;99.90
3406;DHT22;10008;48.682;9.016;2023-02-28T01:56:00;-2.00;99.90
3406;DHT22;10008;48.682;9.016;2023-02-28T01:58:29;-2.00;99.90
3406;DHT22;10008;48.682;9.016;2023-02-28T02:00:55;-2.00;99.90
3406;DHT22;10008;48.682;9.016;2023-02-28T02:03:23;-2.00;99.90
3406;DHT22;10008;48.682;9.016;2023-02-28T02:05:49;-2.00;99.90
3406;DHT22;10008;48.682;9.016;2023-02-28T02:08:19;-2.00;99.90
3406;DHT22;10008;48.682;9.016;2023-02-28T02:10:52;-2.10;99.90
3406;DHT22;10008;48.682;9.016;2023-02-28T02:16:39;-2.10;99.90
3406;DHT22;10008;48.682;9.016;2023-02-28T02:19:58;-2.10;99.90
3406;DHT22;10008;48.682;9.016;2023-02-28T02:28:10;-2.10;99.90
3406;DHT22;10008;48.682;9.016;2023-02-28T02:38:51;-2.20;99.90
3406;DHT22;10008;48.682;9.016;2023-02-28T02:41:49;-2.10;99.90
3406;DHT22;10008;48.682;9.016;2023-02-28T02:44:24;-2.10;99.90
3406;DHT22;10008;48.682;9.016;2023-02-28T02:46:59;-2.00;99.90
3406;DHT22;10008;48.682;9.016;2023-02-28T02:49:31;-2.00;99.90
3406;DHT22;10008;48.682;9.016;2023-02-28T02:52:04;-2.00;99.90
3406;DHT22;10008;48.682;9.016;2023-02-28T02:54:36;-1.20;99.90
3406;DHT22;10008;48.682;9.016;2023-02-28T02:57:07;-1.90;99.90
3406;DHT22;10008;48.682;9.016;2023-02-28T02:59:36;-1.90;99.90
3406;DHT22;10008;48.682;9.016;2023-02-28T03:02:04;-1.90;99.90
3406;DHT22;10008;48.682;9.016;2023-02-28T03:04:38;-1.90;99.90
3406;DHT22;10008;48.682;9.016;2023-02-28T03:07:05;-1.90;99.90
3406;DHT22;10008;48.682;9.016;2023-02-28T03:09:33;-1.80;99.90
3406;DHT22;10008;48.682;9.016;2023-02-28T03:12:00;-1.70;99.90
3406;DHT22;10008;48.682;9.016;2023-02-28T03:19:54;-1.70;99.90
3406;DHT22;10008;48.682;9.016;2023-02-28T03:30:57;-1.60;99.90
3406;DHT22;10008;48.682;9.016;2023-02-28T03:36:04;-1.70;99.90
3406;DHT22;10008;48.682;9.016;2023-02-28T03:38:39;-1.60;99.90
3406;DHT22;10008;48.682;9.016;2023-02-28T03:41:54;-1.60;99.90
3406;DHT22;10008;48.682;9.016;2023-02-28T03:44:24;-1.50;99.90
3406;DHT22;10008;48.682;9.016;2023-02-28T03:47:04;-1.50;99.90
3406;DHT22;10008;48.682;9.016;2023-02-28T03:50:37;-1.50;99.90
3406;DHT22;10008;48.682;9.016;2023-02-28T03:52:50;-1.40;99.90
3406;DHT22;10008;48.682;9.016;2023-02-28T03:55:17;0.10;99.90
3406;DHT22;10008;48.682;9.016;2023-02-28T03:57:53;-1.50;99.90
3406;DHT22;10008;48.682;9.016;2023-02-28T04:00:34;0.10;99.90
3406;DHT22;10008;48.682;9.016;2023-02-28T04:03:00;-1.40;99.90
3406;DHT22;10008;48.682;9.016;2023-02-28T04:05:27;-1.40;99.90
3406;DHT22;10008;48.682;9.016;2023-02-28T04:07:53;-1.40;99.90
3406;DHT22;10008;48.682;9.016;2023-02-28T04:10:19;-1.40;99.90
3406;DHT22;10008;48.682;9.016;2023-02-28T04:12:45;-1.40;99.90
3406;DHT22;10008;48.682;9.016;2023-02-28T04:15:11;-1.40;99.90
3406;DHT22;10008;48.682;9.016;2023-02-28T04:17:37;-1.50;99.90
3406;DHT22;10008;48.682;9.016;2023-02-28T04:20:04;-1.50;99.90
3406;DHT22;10008;48.682;9.016;2023-02-28T04:22:35;-1.40;99.90
3406;DHT22;10008;48.682;9.016;2023-02-28T04:25:00;-0.50;99.90
3406;DHT22;10008;48.682;9.016;2023-02-28T04:27:26;-1.40;99.90
3406;DHT22;10008;48.682;9.016;2023-02-28T04:29:52;-1.40;99.90
3406;DHT22;10008;48.682;9.016;2023-02-28T04:32:17;-1.30;99.90
3406;DHT22;10008;48.682;9.016;2023-02-28T04:34:43;-1.30;99.90
3406;DHT22;10008;48.682;9.016;2023-02-28T04:37:09;0.00;99.90
3406;DHT22;10008;48.682;9.016;2023-02-28T04:39:36;-1.30;99.90
3406;DHT22;10008;48.682;9.016;2023-02-28T04:42:02;-1.20;99.90
3406;DHT22;10008;48.682;9.016;2023-02-28T04:44:28;-1.20;99.90
3406;DHT22;10008;48.682;9.016;2023-02-28T04:46:54;-1.20;99.90
3406;DHT22;10008;48.682;9.016;2023-02-28T04:49:19;-1.20;99.90
3406;DHT22;10008;48.682;9.016;2023-02-28T04:51:45;-1.20;99.90
3406;DHT22;10008;48.682;9.016;2023-02-28T04:54:11;-1.20;99.90
3406;DHT22;10008;48.682;9.016;2023-02-28T04:56:37;-1.10;99.90
3406;DHT22;10008;48.682;9.016;2023-02-28T04:59:02;-1.20;99.90
3406;DHT22;10008;48.682;9.016;2023-02-28T05:01:31;-1.10;99.90
3406;DHT22;10008;48.682;9.016;2023-02-28T05:04:00;-1.10;99.90
3406;DHT22;10008;48.682;9.016;2023-02-28T05:06:29;-1.10;99.90
3406;DHT22;10008;48.682;9.016;2023-02-28T05:08:55;-1.10;99.90
3406;DHT22;10008;48.682;9.016;2023-02-28T05:11:28;-1.00;99.90
3406;DHT22;10008;48.682;9.016;2023-02-28T05:14:05;-1.10;99.90
3406;DHT22;10008;48.682;9.016;2023-02-28T05:16:31;-1.00;99.90
3406;DHT22;10008;48.682;9.016;2023-02-28T05:18:57;-1.10;99.90
3406;DHT22;10008;48.682;9.016;2023-02-28T05:21:31;-1.10;99.90
3406;DHT22;10008;48.682;9.016;2023-02-28T05:24:00;-1.10;99.90
3406;DHT22;10008;48.682;9.016;2023-02-28T05:26:27;-1.10;99.90
3406;DHT22;10008;48.682;9.016;2023-02-28T05:28:53;-1.10;99.90
3406;DHT22;10008;48.682;9.016;2023-02-28T05:31:19;-1.00;99.90
3406;DHT22;10008;48.682;9.016;2023-02-28T05:33:45;-1.00;99.90
3406;DHT22;10008;48.682;9.016;2023-02-28T05:36:11;0.40;99.90
3406;DHT22;10008;48.682;9.016;2023-02-28T05:38:36;-1.10;99.90
3406;DHT22;10008;48.682;9.016;2023-02-28T05:41:09;-1.10;99.90
3406;DHT22;10008;48.682;9.016;2023-02-28T05:43:37;-1.10;99.90
3406;DHT22;10008;48.682;9.016;2023-02-28T05:46:10;-1.10;99.90
3406;DHT22;10008;48.682;9.016;2023-02-28T05:48:37;-1.00;99.90
3406;DHT22;10008;48.682;9.016;2023-02-28T05:51:04;-1.00;99.90
3406;DHT22;10008;48.682;9.016;2023-02-28T05:53:30;-1.00;99.90
3406;DHT22;10008;48.682;9.016;2023-02-28T05:55:56;-1.00;99.90
3406;DHT22;10008;48.682;9.016;2023-02-28T05:58:22;-1.00;99.90
3406;DHT22;10008;48.682;9.016;2023-02-28T06:00:48;-0.90;99.90
3406;DHT22;10008;48.682;9.016;2023-02-28T06:03:14;-1.00;99.90
3406;DHT22;10008;48.682;9.016;2023-02-28T06:05:40;-0.90;99.90
3406;DHT22;10008;48.682;9.016;2023-02-28T06:08:06;-0.90;99.90
3406;DHT22;10008;48.682;9.016;2023-02-28T06:10:34;0.10;99.90
3406;DHT22;10008;48.682;9.016;2023-02-28T06:13:01;-0.60;99.90
3406;DHT22;10008;48.682;9.016;2023-02-28T06:15:28;-1.00;99.90
3406;DHT22;10008;48.682;9.016;2023-02-28T06:17:54;-1.00;99.90
3406;DHT22;10008;48.682;9.016;2023-02-28T06:20:22;-0.90;99.90
3406;DHT22;10008;48.682;9.016;2023-02-28T06:22:48;0.60;99.90
3406;DHT22;10008;48.682;9.016;2023-02-28T06:25:16;-0.80;99.90
3406;DHT22;10008;48.682;9.016;2023-02-28T06:27:42;-0.80;99.90
3406;DHT22;10008;48.682;9.016;2023-02-28T06:30:10;-0.80;99.90
3406;DHT22;10008;48.682;9.016;2023-02-28T06:32:37;-1.30;99.90
3406;DHT22;10008;48.682;9.016;2023-02-28T06:35:03;0.50;99.90
3406;DHT22;10008;48.682;9.016;2023-02-28T06:37:31;-0.70;99.90
3406;DHT22;10008;48.682;9.016;2023-02-28T06:39:56;-0.70;99.90
3406;DHT22;10008;48.682;9.016;2023-02-28T06:42:23;-0.80;99.90
3406;DHT22;10008;48.682;9.016;2023-02-28T06:44:57;0.00;99.90
3406;DHT22;10008;48.682;9.016;2023-02-28T06:47:23;-0.80;99.90
3406;DHT22;10008;48.682;9.016;2023-02-28T06:49:49;0.80;99.90
3406;DHT22;10008;48.682;9.016;2023-02-28T06:52:15;-0.70;99.90
3406;DHT22;10008;48.682;9.016;2023-02-28T06:54:41;-0.70;99.90
3406;DHT22;10008;48.682;9.016;2023-02-28T06:57:07;0.60;99.90
3406;DHT22;10008;48.682;9.016;2023-02-28T06:59:34;0.70;99.90
3406;DHT22;10008;48.682;9.016;2023-02-28T07:02:01;-0.50;99.90
3406;DHT22;10008;48.682;9.016;2023-02-28T07:04:27;0.60;99.90
3406;DHT22;10008;48.682;9.016;2023-02-28T07:06:54;-0.50;99.90
3406;DHT22;10008;48.682;9.016;2023-02-28T07:09:22;-0.50;99.90
3406;DHT22;10008;48.682;9.016;2023-02-28T07:11:48;-0.40;99.90
3406;DHT22;10008;48.682;9.016;2023-02-28T07:14:14;-0.40;99.90
3406;DHT22;10008;48.682;9.016;2023-02-28T07:16:40;0.70;99.90
3406;DHT22;10008;48.682;9.016;2023-02-28T07:19:06;-0.40;99.90
3406;DHT22;10008;48.682;9.016;2023-02-28T07:21:31;-0.30;99.90
3406;DHT22;10008;48.682;9.016;2023-02-28T07:23:57;-0.30;99.90
3406;DHT22;10008;48.682;9.016;2023-02-28T07:26:23;-0.20;99.90
3406;DHT22;10008;48.682;9.016;2023-02-28T07:28:49;-0.10;99.90
3406;DHT22;10008;48.682;9.016;2023-02-28T07:31:16;0.70;99.90
3406;DHT22;10008;48.682;9.016;2023-02-28T07:33:42;1.10;99.90
3406;DHT22;10008;48.682;9.016;2023-02-28T07:36:11;-0.10;99.90
3406;DHT22;10008;48.682;9.016;2023-02-28T07:38:41;-0.90;99.90
3406;DHT22;10008;48.682;9.016;2023-02-28T07:41:08;0.40;99.90
3406;DHT22;10008;48.682;9.016;2023-02-28T07:43:34;-0.10;99.90
3406;DHT22;10008;48.682;9.016;2023-02-28T07:46:09;-0.10;99.90
3406;DHT22;10008;48.682;9.016;2023-02-28T07:48:35;0.00;99.90
3406;DHT22;10008;48.682;9.016;2023-02-28T07:51:02;0.10;99.90
3406;DHT22;10008;48.682;9.016;2023-02-28T07:53:28;0.20;99.90
3406;DHT22;10008;48.682;9.016;2023-02-28T07:55:55;0.20;99.90
3406;DHT22;10008;48.682;9.016;2023-02-28T07:58:22;0.30;99.90
3406;DHT22;10008;48.682;9.016;2023-02-28T08:00:47;0.30;99.90
3406;DHT22;10008;48.682;9.016;2023-02-28T08:03:13;0.90;99.90
3406;DHT22;10008;48.682;9.016;2023-02-28T08:05:42;0.30;99.90
3406;DHT22;10008;48.682;9.016;2023-02-28T08:08:08;0.30;99.90
3406;DHT22;10008;48.682;9.016;2023-02-28T08:10:34;0.30;99.90
3406;DHT22;10008;48.682;9.016;2023-02-28T08:13:00;0.30;99.90
3406;DHT22;10008;48.682;9.016;2023-02-28T08:15:26;0.30;99.90
3406;DHT22;10008;48.682;9.016;2023-02-28T08:17:52;0.40;99.90
3406;DHT22;10008;48.682;9.016;2023-02-28T08:20:17;0.40;99.90
3406;DHT22;10008;48.682;9.016;2023-02-28T08:22:43;0.50;99.90
3406;DHT22;10008;48.682;9.016;2023-02-28T08:25:09;0.50;99.90
3406;DHT22;10008;48.682;9.016;2023-02-28T08:27:35;0.50;99.90
3406;DHT22;10008;48.682;9.016;2023-02-28T08:30:02;0.70;99.90
3406;DHT22;10008;48.682;9.016;2023-02-28T08:32:28;0.60;99.90
3406;DHT22;10008;48.682;9.016;2023-02-28T08:34:54;0.60;99.90
3406;DHT22;10008;48.682;9.016;2023-02-28T08:37:20;1.40;99.90
3406;DHT22;10008;48.682;9.016;2023-02-28T08:39:45;0.60;99.90
3406;DHT22;10008;48.682;9.016;2023-02-28T08:42:11;0.60;99.90
3406;DHT22;10008;48.682;9.016;2023-02-28T08:44:37;1.80;99.90
3406;DHT22;10008;48.682;9.016;2023-02-28T08:47:03;1.70;99.90
3406;DHT22;10008;48.682;9.016;2023-02-28T08:49:29;0.70;99.90
3406;DHT22;10008;48.682;9.016;2023-02-28T08:51:54;0.70;99.90
3406;DHT22;10008;48.682;9.016;2023-02-28T08:54:23;0.70;99.90
3406;DHT22;10008;48.682;9.016;2023-02-28T08:56:48;0.80;99.90
3406;DHT22;10008;48.682;9.016;2023-02-28T08:59:14;1.00;99.90
3406;DHT22;10008;48.682;9.016;2023-02-28T09:01:41;0.90;99.90
3406;DHT22;10008;48.682;9.016;2023-02-28T09:04:07;2.20;99.90
3406;DHT22;10008;48.682;9.016;2023-02-28T09:06:34;0.80;99.90
3406;DHT22;10008;48.682;9.016;2023-02-28T09:09:00;0.80;99.90
3406;DHT22;10008;48.682;9.016;2023-02-28T09:11:28;0.90;99.90
3406;DHT22;10008;48.682;9.016;2023-02-28T09:13:53;1.00;99.90
3406;DHT22;10008;48.682;9.016;2023-02-28T09:16:21;1.00;99.90
3406;DHT22;10008;48.682;9.016;2023-02-28T09:18:47;1.10;99.90
3406;DHT22;10008;48.682;9.016;2023-02-28T09:21:15;1.00;99.90
3406;DHT22;10008;48.682;9.016;2023-02-28T09:23:43;2.00;99.90
3406;DHT22;10008;48.682;9.016;2023-02-28T09:26:18;1.20;99.90
3406;DHT22;10008;48.682;9.016;2023-02-28T09:28:45;1.20;99.90
3406;DHT22;10008;48.682;9.016;2023-02-28T09:31:17;1.20;99.90
3406;DHT22;10008;48.682;9.016;2023-02-28T09:33:47;1.30;99.90
3406;DHT22;10008;48.682;9.016;2023-02-28T09:36:13;2.60;99.90
3406;DHT22;10008;48.682;9.016;2023-02-28T09:38:38;1.30;99.90
3406;DHT22;10008;48.682;9.016;2023-02-28T09:41:15;1.40;99.90
3406;DHT22;10008;48.682;9.016;2023-02-28T09:43:45;1.50;99.90
3406;DHT22;10008;48.682;9.016;2023-02-28T09:46:34;2.40;99.90
3406;DHT22;10008;48.682;9.016;2023-02-28T09:49:06;1.70;99.90
3406;DHT22;10008;48.682;9.016;2023-02-28T09:51:41;1.60;99.90
3406;DHT22;10008;48.682;9.016;2023-02-28T09:54:14;1.70;99.90
3406;DHT22;10008;48.682;9.016;2023-02-28T09:57:08;1.90;99.90
3406;DHT22;10008;48.682;9.016;2023-02-28T10:05:14;1.80;99.90
3406;DHT22;10008;48.682;9.016;2023-02-28T10:08:05;1.70;99.30
3406;DHT22;10008;48.682;9.016;2023-02-28T10:10:55;1.80;99.30
3406;DHT22;10008;48.682;9.016;2023-02-28T10:13:29;1.80;99.50
3406;DHT22;10008;48.682;9.016;2023-02-28T10:16:21;1.80;99.40
3406;DHT22;10008;48.682;9.016;2023-02-28T10:19:02;1.70;99.40
3406;DHT22;10008;48.682;9.016;2023-02-28T10:21:55;1.80;99.60
3406;DHT22;10008;48.682;9.016;2023-02-28T10:24:49;1.80;99.30
3406;DHT22;10008;48.682;9.016;2023-02-28T10:27:26;1.90;99.10
3406;DHT22;10008;48.682;9.016;2023-02-28T10:29:56;2.00;99.00
3406;DHT22;10008;48.682;9.016;2023-02-28T10:32:30;2.90;99.10
3406;DHT22;10008;48.682;9.016;2023-02-28T10:37:39;2.10;98.30
3406;DHT22;10008;48.682;9.016;2023-02-28T10:40:24;2.40;98.70
3406;DHT22;10008;48.682;9.016;2023-02-28T10:43:03;2.70;97.50
3406;DHT22;10008;48.682;9.016;2023-02-28T10:45:31;2.70;97.00
3406;DHT22;10008;48.682;9.016;2023-02-28T10:48:00;3.10;97.30
3406;DHT22;10008;48.682;9.016;2023-02-28T10:50:50;4.30;97.00
3406;DHT22;10008;48.682;9.016;2023-02-28T10:55:44;3.70;95.20
3406;DHT22;10008;48.682;9.016;2023-02-28T10:58:24;3.90;94.60
3406;DHT22;10008;48.682;9.016;2023-02-28T11:00:51;3.60;93.60
3406;DHT22;10008;48.682;9.016;2023-02-28T11:03:32;3.50;94.10
3406;DHT22;10008;48.682;9.016;2023-02-28T11:06:03;3.70;94.20
3406;DHT22;10008;48.682;9.016;2023-02-28T11:08:29;3.90;93.80
3406;DHT22;10008;48.682;9.016;2023-02-28T11:11:03;4.70;93.70
3406;DHT22;10008;48.682;9.016;2023-02-28T11:13:34;4.10;93.10
3406;DHT22;10008;48.682;9.016;2023-02-28T11:16:05;4.30;92.60
3406;DHT22;10008;48.682;9.016;2023-02-28T11:18:39;4.50;92.60
3406;DHT22;10008;48.682;9.016;2023-02-28T11:21:06;4.30;91.60
3406;DHT22;10008;48.682;9.016;2023-02-28T11:23:34;4.80;92.10
3406;DHT22;10008;48.682;9.016;2023-02-28T11:26:03;4.20;92.40
3406;DHT22;10008;48.682;9.016;2023-02-28T11:28:39;4.20;92.20
3406;DHT22;10008;48.682;9.016;2023-02-28T11:31:17;4.20;92.00
3406;DHT22;10008;48.682;9.016;2023-02-28T11:33:47;4.20;91.90
3406;DHT22;10008;48.682;9.016;2023-02-28T11:36:30;4.50;91.30
3406;DHT22;10008;48.682;9.016;2023-02-28T11:38:59;5.80;91.00
3406;DHT22;10008;48.682;9.016;2023-02-28T11:49:18;8.00;79.30
3406;DHT22;10008;48.682;9.016;2023-02-28T11:52:01;8.50;77.20
3406;DHT22;10008;48.682;9.016;2023-02-28T11:57:28;9.80;72.00
3406;DHT22;10008;48.682;9.016;2023-02-28T12:03:09;10.40;65.80
3406;DHT22;10008;48.682;9.016;2023-02-28T12:05:46;10.60;66.70
3406;DHT22;10008;48.682;9.016;2023-02-28T12:13:26;9.90;68.20
3406;DHT22;10008;48.682;9.016;2023-02-28T12:18:56;11.30;65.40
3406;DHT22;10008;48.682;9.016;2023-02-28T12:26:48;9.80;64.10
3406;DHT22;10008;48.682;9.016;2023-02-28T12:34:33;8.40;70.40
3406;DHT22;10008;48.682;9.016;2023-02-28T12:37:05;8.70;69.10
3406;DHT22;10008;48.682;9.016;2023-02-28T12:39:38;8.90;68.50
3406;DHT22;10008;48.682;9.016;2023-02-28T12:42:27;9.20;68.50
3406;DHT22;10008;48.682;9.016;2023-02-28T12:45:04;9.40;67.30
3406;DHT22;10008;48.682;9.016;2023-02-28T12:47:32;9.20;68.70
3406;DHT22;10008;48.682;9.016;2023-02-28T12:50:09;9.40;68.50
3406;DHT22;10008;48.682;9.016;2023-02-28T12:55:39;10.10;65.90
3406;DHT22;10008;48.682;9.016;2023-02-28T13:01:01;10.50;63.50
3406;DHT22;10008;48.682;9.016;2023-02-28T13:07:09;11.70;60.80
3406;DHT22;10008;48.682;9.016;2023-02-28T13:09:38;11.80;60.40
3406;DHT22;10008;48.682;9.016;2023-02-28T13:12:15;11.60;59.70
3406;DHT22;10008;48.682;9.016;2023-02-28T13:14:42;11.70;59.40
3406;DHT22;10008;48.682;9.016;2023-02-28T13:19:58;11.40;59.30
3406;DHT22;10008;48.682;9.016;2023-02-28T13:22:42;11.40;60.70
3406;DHT22;10008;48.682;9.016;2023-02-28T13:27:50;10.60;60.10
3406;DHT22;10008;48.682;9.016;2023-02-28T13:33:35;10.90;59.70
3406;DHT22;10008;48.682;9.016;2023-02-28T13:38:50;11.00;60.20
3406;DHT22;10008;48.682;9.016;2023-02-28T13:41:42;10.90;60.30
3406;DHT22;10008;48.682;9.016;2023-02-28T13:49:29;10.00;62.80
3406;DHT22;10008;48.682;9.016;2023-02-28T13:57:11;11.40;58.90
3406;DHT22;10008;48.682;9.016;2023-02-28T14:03:03;11.10;59.60
3406;DHT22;10008;48.682;9.016;2023-02-28T14:05:21;11.60;58.80
3406;DHT22;10008;48.682;9.016;2023-02-28T14:07:53;11.60;58.00
3406;DHT22;10008;48.682;9.016;2023-02-28T14:10:29;11.80;57.90
3406;DHT22;10008;48.682;9.016;2023-02-28T14:13:14;11.70;58.00
3406;DHT22;10008;48.682;9.016;2023-02-28T14:16:03;11.40;59.30
3406;DHT22;10008;48.682;9.016;2023-02-28T14:18:47;11.50;58.20
3406;DHT22;10008;48.682;9.016;2023-02-28T14:21:27;11.40;59.10
3406;DHT22;10008;48.682;9.016;2023-02-28T14:37:48;10.90;58.40
3406;DHT22;10008;48.682;9.016;2023-02-28T14:40:28;10.70;59.20
3406;DHT22;10008;48.682;9.016;2023-02-28T14:42:57;10.60;59.90
3406;DHT22;10008;48.682;9.016;2023-02-28T14:45:25;10.50;59.60
3406;DHT22;10008;48.682;9.016;2023-02-28T14:47:52;9.90;60.80
3406;DHT22;10008;48.682;9.016;2023-02-28T14:50:32;9.60;62.80
3406;DHT22;10008;48.682;9.016;2023-02-28T14:52:59;9.50;63.00
3406;DHT22;10008;48.682;9.016;2023-02-28T14:55:43;9.10;63.00
3406;DHT22;10008;48.682;9.016;2023-02-28T14:58:24;9.00;63.70
3406;DHT22;10008;48.682;9.016;2023-02-28T15:00:52;9.10;64.70
3406;DHT22;10008;48.682;9.016;2023-02-28T15:03:34;9.20;64.30
3406;DHT22;10008;48.682;9.016;2023-02-28T15:06:06;9.20;63.80
3406;DHT22;10008;48.682;9.016;2023-02-28T15:08:32;9.10;63.80
3406;DHT22;10008;48.682;9.016;2023-02-28T15:11:27;9.30;65.00
3406;DHT22;10008;48.682;9.016;2023-02-28T15:13:54;9.50;64.40
3406;DHT22;10008;48.682;9.016;2023-02-28T15:16:28;9.50;63.60
3406;DHT22;10008;48.682;9.016;2023-02-28T15:19:27;9.50;64.00
3406;DHT22;10008;48.682;9.016;2023-02-28T15:21:59;9.30;63.60
3406;DHT22;10008;48.682;9.016;2023-02-28T15:24:41;8.90;64.30
3406;DHT22;10008;48.682;9.016;2023-02-28T15:27:21;9.00;65.00
3406;DHT22;10008;48.682;9.016;2023-02-28T15:29:56;8.80;64.90
3406;DHT22;10008;48.682;9.016;2023-02-28T15:34:47;8.60;65.30
3406;DHT22;10008;48.682;9.016;2023-02-28T15:37:40;8.70;66.40
3406;DHT22;10008;48.682;9.016;2023-02-28T15:40:32;8.80;66.60
3406;DHT22;10008;48.682;9.016;2023-02-28T15:43:14;8.60;66.00
3406;DHT22;10008;48.682;9.016;2023-02-28T15:46:01;8.30;66.40
3406;DHT22;10008;48.682;9.016;2023-02-28T15:48:32;8.20;66.90
3406;DHT22;10008;48.682;9.016;2023-02-28T15:51:16;8.20;67.20
3406;DHT22;10008;48.682;9.016;2023-02-28T15:54:02;8.10;67.70
3406;DHT22;10008;48.682;9.016;2023-02-28T15:56:32;7.70;67.70
3406;DHT22;10008;48.682;9.016;2023-02-28T15:59:00;7.50;68.80
3406;DHT22;10008;48.682;9.016;2023-02-28T16:01:34;7.30;69.10
3406;DHT22;10008;48.682;9.016;2023-02-28T16:04:06;7.20;70.70
3406;DHT22;10008;48.682;9.016;2023-02-28T16:09:01;7.00;71.50
3406;DHT22;10008;48.682;9.016;2023-02-28T16:11:27;6.80;71.10
3406;DHT22;10008;48.682;9.016;2023-02-28T16:13:53;6.70;71.80
3406;DHT22;10008;48.682;9.016;2023-02-28T16:16:22;6.50;72.50
3406;DHT22;10008;48.682;9.016;2023-02-28T16:18:48;6.40;72.50
3406;DHT22;10008;48.682;9.016;2023-02-28T16:21:14;6.30;72.50
3406;DHT22;10008;48.682;9.016;2023-02-28T16:23:40;6.10;73.30
3406;DHT22;10008;48.682;9.016;2023-02-28T16:26:06;6.10;73.90
3406;DHT22;10008;48.682;9.016;2023-02-28T16:28:37;6.00;74.00
3406;DHT22;10008;48.682;9.016;2023-02-28T16:31:05;6.00;74.40
3406;DHT22;10008;48.682;9.016;2023-02-28T16:33:32;5.90;74.80
3406;DHT22;10008;48.682;9.016;2023-02-28T16:35:59;5.80;75.40
3406;DHT22;10008;48.682;9.016;2023-02-28T16:38:25;5.70;75.40
3406;DHT22;10008;48.682;9.016;2023-02-28T16:40:53;5.60;75.90
3406;DHT22;10008;48.682;9.016;2023-02-28T16:43:23;5.60;77.20
3406;DHT22;10008;48.682;9.016;2023-02-28T16:45:56;5.40;77.30
3406;DHT22;10008;48.682;9.016;2023-02-28T16:48:23;5.30;78.10
3406;DHT22;10008;48.682;9.016;2023-02-28T16:50:51;5.20;78.10
3406;DHT22;10008;48.682;9.016;2023-02-28T16:53:16;5.00;79.10
3406;DHT22;10008;48.682;9.016;2023-02-28T16:55:42;5.00;79.90
3406;DHT22;10008;48.682;9.016;2023-02-28T16:58:13;4.80;80.70
3406;DHT22;10008;48.682;9.016;2023-02-28T17:00:40;4.70;81.40
3406;DHT22;10008;48.682;9.016;2023-02-28T17:05:46;4.40;83.50
3406;DHT22;10008;48.682;9.016;2023-02-28T17:08:12;4.30;84.70
3406;DHT22;10008;48.682;9.016;2023-02-28T17:10:38;4.20;85.60
3406;DHT22;10008;48.682;9.016;2023-02-28T17:13:03;4.00;85.50
3406;DHT22;10008;48.682;9.016;2023-02-28T17:15:29;3.90;85.70
3406;DHT22;10008;48.682;9.016;2023-02-28T17:17:56;3.90;86.30
3406;DHT22;10008;48.682;9.016;2023-02-28T17:20:22;3.70;89.50
3406;DHT22;10008;48.682;9.016;2023-02-28T17:22:52;3.60;88.60
3406;DHT22;10008;48.682;9.016;2023-02-28T17:25:17;3.60;90.00
3406;DHT22;10008;48.682;9.016;2023-02-28T17:27:44;3.50;90.00
3406;DHT22;10008;48.682;9.016;2023-02-28T17:30:21;3.60;90.10
3406;DHT22;10008;48.682;9.016;2023-02-28T17:32:47;3.30;90.40
3406;DHT22;10008;48.682;9.016;2023-02-28T17:35:13;3.30;91.00
3406;DHT22;10008;48.682;9.016;2023-02-28T17:37:39;3.20;91.50
3406;DHT22;10008;48.682;9.016;2023-02-28T17:40:06;3.10;91.60
3406;DHT22;10008;48.682;9.016;2023-02-28T17:42:32;3.00;91.60
3406;DHT22;10008;48.682;9.016;2023-02-28T17:44:57;4.00;92.60
3406;DHT22;10008;48.682;9.016;2023-02-28T17:47:23;2.90;92.10
3406;DHT22;10008;48.682;9.016;2023-02-28T17:49:49;2.90;92.10
3406;DHT22;10008;48.682;9.016;2023-02-28T17:52:15;3.90;92.40
3406;DHT22;10008;48.682;9.016;2023-02-28T17:54:40;2.80;92.20
3406;DHT22;10008;48.682;9.016;2023-02-28T17:57:12;3.00;93.70
3406;DHT22;10008;48.682;9.016;2023-02-28T17:59:40;2.60;93.60
3406;DHT22;10008;48.682;9.016;2023-02-28T18:02:10;2.60;93.30
3406;DHT22;10008;48.682;9.016;2023-02-28T18:04:37;3.20;93.40
3406;DHT22;10008;48.682;9.016;2023-02-28T18:07:03;2.50;94.00
3406;DHT22;10008;48.682;9.016;2023-02-28T18:09:28;3.60;94.60
3406;DHT22;10008;48.682;9.016;2023-02-28T18:11:55;2.50;94.50
3406;DHT22;10008;48.682;9.016;2023-02-28T18:14:23;3.20;95.00
3406;DHT22;10008;48.682;9.016;2023-02-28T18:16:51;3.50;95.30
3406;DHT22;10008;48.682;9.016;2023-02-28T18:19:17;2.40;94.70
3406;DHT22;10008;48.682;9.016;2023-02-28T18:21:45;2.30;95.20
3406;DHT22;10008;48.682;9.016;2023-02-28T18:24:12;2.90;95.50
3406;DHT22;10008;48.682;9.016;2023-02-28T18:26:38;2.30;95.40